Time;durP1;ratioP1;P1;durP2;ratioP2;P2;SDS_P1;SDS_P2;PMS_P1;PMS_P2;Temp;Humidity;BMP_temperature;BMP_pressure;BME280_temperature;BME280_humidity;BME280_pressure;Samples;Min_cycle;Max_cycle;Signal;HPM_P1;HPM_P2
2021/04/22 00:00:57;;;;;;;29.37;21.70;;;;;;;9.68;68.50;100529.94;2073427;28;20026;-60
2021/04/22 00:01:58;;;;;;;24.97;21.73;;;;;;;9.62;68.60;100537.00;2072479;28;20029;-60
2021/04/22 00:02:58;;;;;;;26.60;22.03;;;;;;;9.58;68.78;100529.28;2072821;28;20052;-60
2021/04/22 00:03:59;;;;;;;29.20;20.93;;;;;;;9.58;68.89;100531.91;2073234;28;20097;-60
2021/04/22 00:04:59;;;;;;;28.20;22.00;;;;;;;9.55;69.28;100535.41;2073351;28;20718;-60
2021/04/22 00:06:00;;;;;;;26.13;21.45;;;;;;;9.54;69.03;100538.91;2073215;28;20029;-60
2021/04/22 00:07:00;;;;;;;31.17;21.40;;;;;;;9.53;69.56;100541.53;2073189;28;20034;-60
2021/04/22 00:08:02;;;;;;;28.93;22.13;;;;;;;9.54;69.07;100544.13;2073242;28;20021;-60
2021/04/22 00:09:05;;;;;;;30.80;21.55;;;;;;;9.57;69.29;100536.22;2073186;28;20147;-60
2021/04/22 00:10:11;;;;;;;29.65;22.55;;;;;;;9.58;69.47;100537.09;2073350;28;20076;-60
2021/04/22 00:11:11;;;;;;;30.35;21.90;;;;;;;9.59;69.30;100533.59;2072636;28;20057;-60
2021/04/22 00:12:12;;;;;;;29.33;21.50;;;;;;;9.59;69.19;100533.59;2072685;28;20022;-60
2021/04/22 00:13:15;;;;;;;29.45;21.70;;;;;;;9.61;69.18;100537.00;2073293;28;20061;-60
2021/04/22 00:14:16;;;;;;;32.00;22.45;;;;;;;9.59;69.32;100537.06;2073396;28;20037;-60
2021/04/22 00:15:19;;;;;;;26.92;21.60;;;;;;;9.60;69.38;100543.97;2073393;28;20045;-60
2021/04/22 00:16:19;;;;;;;34.47;21.33;;;;;;;9.63;69.52;100540.44;2073096;28;20033;-60
2021/04/22 00:17:19;;;;;;;25.73;21.80;;;;;;;9.59;69.53;100536.22;2073315;28;20076;-60
2021/04/22 00:18:20;;;;;;;27.03;21.20;;;;;;;9.61;69.78;100540.50;2073404;28;20385;-60
2021/04/22 00:19:20;;;;;;;25.33;21.45;;;;;;;9.59;69.58;100542.25;2066447;28;20033;-60
2021/04/22 00:20:21;;;;;;;29.00;20.77;;;;;;;9.54;69.93;100546.72;2065420;28;20033;-60
2021/04/22 00:21:21;;;;;;;28.45;21.30;;;;;;;9.51;70.21;100549.38;2064184;28;20085;-60
2021/04/22 00:22:22;;;;;;;25.63;21.80;;;;;;;9.53;70.19;100541.53;2064597;28;20030;-60
2021/04/22 00:23:22;;;;;;;30.27;21.20;;;;;;;9.51;69.88;100544.16;2064669;28;20056;-60
2021/04/22 00:24:22;;;;;;;29.37;21.63;;;;;;;9.49;70.28;100543.34;2065123;28;20121;-60
2021/04/22 00:25:23;;;;;;;27.60;21.43;;;;;;;9.46;70.32;100546.00;2064327;28;20027;-60
2021/04/22 00:26:23;;;;;;;31.13;21.33;;;;;;;9.47;70.22;100550.31;2064951;28;20038;-60
2021/04/22 00:27:23;;;;;;;26.30;20.93;;;;;;;9.42;70.33;100552.16;2064796;28;20061;-60
2021/04/22 00:28:24;;;;;;;26.23;21.23;;;;;;;9.43;70.33;100551.28;2064856;28;20034;-60
2021/04/22 00:29:24;;;;;;;27.33;21.43;;;;;;;9.40;71.01;100551.31;2064180;28;20555;-60
2021/04/22 00:30:25;;;;;;;28.20;21.57;;;;;;;9.28;71.05;100548.06;2064600;28;20026;-60
2021/04/22 00:31:25;;;;;;;28.23;21.97;;;;;;;9.26;70.88;100552.44;2064939;28;20038;-60
2021/04/22 00:32:26;;;;;;;29.20;21.00;;;;;;;9.25;70.86;100555.06;2065137;28;20045;-60
2021/04/22 00:33:26;;;;;;;29.13;23.03;;;;;;;9.19;71.30;100563.84;2064796;28;20786;-60
2021/04/22 00:34:26;;;;;;;29.70;22.67;;;;;;;9.13;71.65;100558.78;2065120;28;20077;-60
2021/04/22 00:35:26;;;;;;;30.13;23.10;;;;;;;9.08;71.61;100565.78;2064848;28;20037;-60
2021/04/22 00:36:27;;;;;;;32.70;23.17;;;;;;;9.06;71.85;100563.22;2064153;28;20368;-60
2021/04/22 00:37:27;;;;;;;29.37;22.70;;;;;;;8.96;71.94;100562.56;2056238;28;20035;-60
2021/04/22 00:38:27;;;;;;;31.63;23.50;;;;;;;8.87;72.18;100562.69;2064396;28;20037;-60
2021/04/22 00:39:27;;;;;;;31.83;24.20;;;;;;;8.79;71.87;100564.56;2064778;28;20037;-60
2021/04/22 00:40:28;;;;;;;33.67;23.00;;;;;;;8.75;72.39;100568.97;2065034;28;20026;-60
2021/04/22 00:41:29;;;;;;;28.08;23.40;;;;;;;8.69;72.29;100563.88;2064795;28;20113;-60
2021/04/22 00:42:29;;;;;;;32.97;24.07;;;;;;;8.63;72.74;100559.63;2063760;28;20030;-61
2021/04/22 00:43:29;;;;;;;28.53;23.70;;;;;;;8.53;72.84;100569.28;2064095;28;20391;-61
2021/04/22 00:44:29;;;;;;;30.67;24.47;;;;;;;8.54;73.03;100562.38;2064968;28;20037;-60
2021/04/22 00:45:32;;;;;;;34.23;25.00;;;;;;;8.51;73.18;100565.00;2064830;28;20034;-60
2021/04/22 00:46:35;;;;;;;29.27;23.80;;;;;;;8.47;73.06;100563.34;2064691;28;20026;-60
2021/04/22 00:47:37;;;;;;;32.03;24.35;;;;;;;8.44;73.13;100565.97;2064929;28;20037;-60
2021/04/22 00:48:37;;;;;;;30.63;23.70;;;;;;;8.38;73.64;100559.97;2064640;28;20114;-60
2021/04/22 00:49:38;;;;;;;32.13;24.73;;;;;;;8.30;73.93;100569.63;2064839;28;20022;-60
2021/04/22 00:50:40;;;;;;;30.50;23.47;;;;;;;8.23;74.13;100570.59;2064814;28;20030;-60
2021/04/22 00:51:41;;;;;;;31.50;24.00;;;;;;;8.28;73.85;100566.19;2064925;28;20023;-60
2021/04/22 00:52:42;;;;;;;32.07;24.57;;;;;;;8.17;74.29;100571.53;2064501;28;20099;-60
2021/04/22 00:53:43;;;;;;;29.70;23.48;;;;;;;8.15;74.59;100567.25;2064739;28;20478;-60
2021/04/22 00:54:44;;;;;;;37.67;24.48;;;;;;;8.14;74.71;100570.75;2064697;28;20100;-60
2021/04/22 00:55:44;;;;;;;33.22;24.13;;;;;;;8.07;74.92;100569.97;2064926;28;20533;-60
2021/04/22 00:56:44;;;;;;;30.93;23.43;;;;;;;8.03;75.04;100573.50;2064374;28;20096;-60
2021/04/22 00:57:45;;;;;;;30.80;24.50;;;;;;;7.97;75.26;100566.66;2064874;28;20034;-60
2021/04/22 00:58:45;;;;;;;30.13;23.90;;;;;;;8.00;75.34;100574.38;2064420;28;20040;-60
2021/04/22 00:59:46;;;;;;;29.33;23.00;;;;;;;7.98;75.56;100570.97;2064912;28;20042;-60
2021/04/22 01:00:53;;;;;;;33.30;24.50;;;;;;;7.96;75.61;100575.31;2064553;28;20168;-60
2021/04/22 01:01:53;;;;;;;32.28;23.90;;;;;;;7.99;75.32;100567.47;2064801;28;20474;-60
2021/04/22 01:02:54;;;;;;;31.57;23.90;;;;;;;7.97;75.63;100579.63;2064339;28;20022;-60
2021/04/22 01:03:54;;;;;;;30.77;24.30;;;;;;;7.87;75.83;100575.44;2056544;28;20282;-60
2021/04/22 01:04:54;;;;;;;29.00;23.13;;;;;;;7.84;76.00;100567.69;2056515;28;20055;-60
2021/04/22 01:05:57;;;;;;;32.93;24.10;;;;;;;7.79;76.59;100575.53;2056688;28;20514;-60
2021/04/22 01:06:58;;;;;;;31.65;23.60;;;;;;;7.84;76.19;100578.06;2056705;28;20093;-60
2021/04/22 01:07:59;;;;;;;35.70;24.60;;;;;;;7.84;76.40;100578.06;2056667;28;20539;-60
2021/04/22 01:09:04;;;;;;;31.73;24.35;;;;;;;7.76;76.52;100580.75;2056336;28;20026;-60
2021/04/22 01:10:05;;;;;;;31.33;24.50;;;;;;;7.74;76.68;100578.19;2057165;28;20545;-60
2021/04/22 01:11:07;;;;;;;33.63;24.83;;;;;;;7.74;76.59;100574.75;2064396;28;20494;-60
2021/04/22 01:12:10;;;;;;;31.17;24.58;;;;;;;7.71;76.84;100575.59;2056609;28;20023;-60
2021/04/22 01:13:10;;;;;;;33.45;24.60;;;;;;;7.71;77.04;100578.22;2064358;28;20511;-60
2021/04/22 01:14:10;;;;;;;31.20;24.87;;;;;;;7.62;77.22;100586.97;2072277;28;20022;-60
2021/04/22 01:15:16;;;;;;;34.97;23.83;;;;;;;7.65;77.39;100583.47;2063909;28;20113;-60
2021/04/22 01:16:16;;;;;;;31.20;24.25;;;;;;;7.64;77.15;100584.34;2056299;28;20027;-60
2021/04/22 01:17:16;;;;;;;34.83;24.43;;;;;;;7.57;77.63;100587.91;2063930;28;20073;-60
2021/04/22 01:18:16;;;;;;;31.90;24.60;;;;;;;7.57;77.92;100586.16;2066262;28;20034;-60
2021/04/22 01:19:17;;;;;;;29.83;24.90;;;;;;;7.56;77.86;100584.44;2057443;28;20114;-60
2021/04/22 01:20:21;;;;;;;35.23;24.90;;;;;;;7.56;77.96;100587.03;2064026;28;20026;-60
2021/04/22 01:21:28;;;;;;;37.33;25.40;;;;;;;7.54;77.94;100586.22;2064362;28;20026;-60
2021/04/22 01:22:28;;;;;;;34.08;24.15;;;;;;;7.48;78.21;100588.84;2064674;28;20026;-60
2021/04/22 01:23:29;;;;;;;31.10;24.20;;;;;;;7.48;78.27;100587.13;2064429;28;20109;-60
2021/04/22 01:24:30;;;;;;;30.95;25.02;;;;;;;7.51;78.31;100587.97;2064700;28;20083;-60
2021/04/22 01:25:36;;;;;;;35.85;24.23;;;;;;;7.54;78.14;100595.72;2064367;28;20535;-60
2021/04/22 01:26:36;;;;;;;36.40;24.35;;;;;;;7.52;78.08;100581.91;2063322;28;20030;-60
2021/04/22 01:27:40;;;;;;;32.30;23.63;;;;;;;7.46;78.30;100588.88;2063671;28;20026;-60
2021/04/22 01:28:40;;;;;;;31.10;24.40;;;;;;;7.49;78.17;100593.16;2063316;28;20058;-60
2021/04/22 01:29:40;;;;;;;32.57;24.80;;;;;;;7.45;78.60;100578.50;2063133;28;20030;-60
2021/04/22 01:30:44;;;;;;;32.77;25.23;;;;;;;7.40;78.87;100585.50;2062748;28;20036;-60
2021/04/22 01:31:44;;;;;;;34.13;25.67;;;;;;;7.39;78.86;100595.03;2063179;28;20117;-60
2021/04/22 01:32:45;;;;;;;31.00;23.97;;;;;;;7.35;79.01;100593.31;2064272;28;20022;-60
2021/04/22 01:33:45;;;;;;;31.47;23.63;;;;;;;7.36;79.03;100589.84;2063653;28;20352;-60
2021/04/22 01:34:45;;;;;;;31.43;24.43;;;;;;;7.36;79.08;100589.84;2061669;28;20128;-59
2021/04/22 01:35:49;;;;;;;34.17;24.43;;;;;;;7.34;79.01;100594.19;2067116;28;20025;-60
2021/04/22 01:36:50;;;;;;;30.83;23.63;;;;;;;7.32;79.07;100590.75;2063695;28;20030;-60
2021/04/22 01:37:51;;;;;;;32.70;24.70;;;;;;;7.30;79.23;100592.50;2063796;28;20110;-60
2021/04/22 01:38:52;;;;;;;32.85;24.60;;;;;;;7.26;79.29;100598.59;2063963;28;20157;-60
2021/04/22 01:39:52;;;;;;;33.43;25.37;;;;;;;7.20;79.62;100598.69;2063873;28;20126;-60
2021/04/22 01:40:55;;;;;;;35.45;24.15;;;;;;;7.23;79.58;100594.31;2064468;28;20097;-60
2021/04/22 01:41:55;;;;;;;32.00;24.27;;;;;;;7.22;79.76;100604.69;2064391;28;20026;-60
2021/04/22 01:42:56;;;;;;;31.03;24.37;;;;;;;7.17;79.85;100594.34;2064408;28;20054;-60
2021/04/22 01:43:56;;;;;;;34.33;24.70;;;;;;;7.12;80.04;100603.94;2064510;28;20018;-60
2021/04/22 01:44:58;;;;;;;33.10;23.93;;;;;;;7.18;79.55;100598.69;2064511;28;20026;-60
2021/04/22 01:45:59;;;;;;;28.80;23.95;;;;;;;7.12;80.11;100599.59;2064500;28;20025;-60
2021/04/22 01:46:59;;;;;;;31.38;23.33;;;;;;;7.19;79.80;100604.72;2064102;28;20026;-60
2021/04/22 01:48:00;;;;;;;33.80;23.77;;;;;;;7.11;80.08;100605.66;2064527;28;20029;-60
2021/04/22 01:49:00;;;;;;;30.92;24.52;;;;;;;7.11;80.07;100605.66;2064407;28;20026;-60
2021/04/22 01:50:00;;;;;;;32.03;24.20;;;;;;;7.08;80.22;100600.50;2063852;28;20026;-60
2021/04/22 01:51:02;;;;;;;31.27;24.58;;;;;;;7.00;80.53;100604.91;2063741;28;20022;-60
2021/04/22 01:52:02;;;;;;;30.05;23.67;;;;;;;7.00;80.74;100603.16;2064488;28;20040;-60
2021/04/22 01:53:05;;;;;;;37.87;24.20;;;;;;;6.96;80.88;100608.38;2064348;28;20033;-60
2021/04/22 01:54:06;;;;;;;31.75;24.02;;;;;;;6.95;81.03;100604.06;2064434;28;20026;-60
2021/04/22 01:55:13;;;;;;;33.35;24.17;;;;;;;7.03;80.48;100604.84;2064422;28;20029;-60
2021/04/22 01:56:14;;;;;;;30.38;23.70;;;;;;;6.99;80.57;100605.78;2071729;28;20418;-60
2021/04/22 01:57:14;;;;;;;34.40;24.13;;;;;;;6.95;80.74;100610.13;2071840;28;20052;-60
2021/04/22 01:58:23;;;;;;;30.90;24.03;;;;;;;6.94;81.01;100610.13;2064458;28;20494;-60
2021/04/22 01:59:23;;;;;;;32.42;23.83;;;;;;;6.97;80.98;100605.78;2064366;28;20022;-60
2021/04/22 02:00:32;;;;;;;30.57;24.37;;;;;;;6.95;80.99;100612.72;2064441;28;20109;-60
2021/04/22 02:01:32;;;;;;;32.90;23.48;;;;;;;6.95;81.01;100612.72;2070042;28;20658;-59
2021/04/22 02:02:32;;;;;;;32.93;23.77;;;;;;;6.88;81.32;100620.56;2072359;28;20033;-59
2021/04/22 02:03:33;;;;;;;33.60;23.70;;;;;;;6.87;81.38;100618.84;2072314;28;20387;-57
2021/04/22 02:04:33;;;;;;;32.92;24.02;;;;;;;6.79;81.63;100621.47;2072425;28;20044;-59
2021/04/22 02:05:35;;;;;;;39.33;26.03;;;;;;;6.81;81.58;100625.75;2072265;28;20055;-59
2021/04/22 02:06:35;;;;;;;35.30;24.65;;;;;;;6.80;82.31;100618.91;2071519;28;20054;-59
2021/04/22 02:07:36;;;;;;;40.10;26.80;;;;;;;6.77;81.94;100620.63;2071738;28;20025;-59
2021/04/22 02:08:37;;;;;;;38.37;25.50;;;;;;;6.74;81.92;100625.84;2072423;28;20029;-59
2021/04/22 02:09:37;;;;;;;32.03;25.30;;;;;;;6.80;81.66;100618.91;2072224;28;20386;-59
2021/04/22 02:10:39;;;;;;;33.57;25.50;;;;;;;6.81;81.70;100630.94;2072262;28;20058;-59
2021/04/22 02:11:39;;;;;;;33.00;24.08;;;;;;;6.79;81.83;100627.53;2072218;28;20026;-59
2021/04/22 02:12:39;;;;;;;31.57;22.63;;;;;;;6.81;81.82;100623.19;2072274;28;20033;-59
2021/04/22 02:13:40;;;;;;;32.40;22.27;;;;;;;6.87;81.54;100629.19;2072163;28;20029;-59
2021/04/22 02:14:40;;;;;;;33.83;22.77;;;;;;;6.82;81.77;100627.50;2072242;28;20029;-59
2021/04/22 02:15:40;;;;;;;28.37;21.93;;;;;;;6.82;81.69;100630.09;2072155;28;20022;-59
2021/04/22 02:16:41;;;;;;;31.33;22.03;;;;;;;6.85;81.51;100632.66;2072027;28;20041;-59
2021/04/22 02:17:43;;;;;;;31.63;22.63;;;;;;;6.85;81.65;100632.66;2072186;28;20374;-58
2021/04/22 02:18:43;;;;;;;32.15;22.73;;;;;;;6.87;81.69;100634.38;2072206;28;20053;-59
2021/04/22 02:19:43;;;;;;;28.90;22.07;;;;;;;6.82;81.75;100630.09;2072126;28;20093;-59
2021/04/22 02:20:44;;;;;;;28.50;22.37;;;;;;;6.79;81.97;100632.72;2065888;28;20549;-59
2021/04/22 02:21:44;;;;;;;28.13;21.13;;;;;;;6.79;81.97;100637.03;2066703;28;20045;-58
2021/04/22 02:22:46;;;;;;;27.30;22.10;;;;;;;6.83;81.83;100636.97;2068193;28;20561;-59
2021/04/22 02:23:46;;;;;;;29.00;22.15;;;;;;;6.82;81.89;100632.66;2067732;28;20065;-59
2021/04/22 02:24:46;;;;;;;26.37;20.90;;;;;;;6.82;81.70;100643.03;2067659;28;20112;-59
2021/04/22 02:25:47;;;;;;;31.23;21.53;;;;;;;6.77;81.75;100644.81;2070755;28;20034;-59
2021/04/22 02:26:48;;;;;;;32.20;21.10;;;;;;;6.83;81.87;100638.72;2070891;28;20500;-58
2021/04/22 02:27:49;;;;;;;26.83;20.83;;;;;;;6.81;81.91;100643.06;2072164;28;20033;-59
2021/04/22 02:28:49;;;;;;;30.83;21.05;;;;;;;6.78;81.94;100635.28;2070758;28;20092;-59
2021/04/22 02:29:49;;;;;;;31.90;20.73;;;;;;;6.78;82.11;100641.34;2071518;28;20505;-59
2021/04/22 02:30:50;;;;;;;26.70;20.43;;;;;;;6.79;81.92;100643.06;2071801;28;20026;-58
2021/04/22 02:31:50;;;;;;;30.03;19.73;;;;;;;6.79;81.95;100647.38;2071086;28;20103;-58
2021/04/22 02:32:52;;;;;;;27.20;19.30;;;;;;;6.80;81.87;100647.41;2071494;28;20632;-58
2021/04/22 02:33:53;;;;;;;28.25;20.50;;;;;;;6.78;81.84;100650.84;2072076;28;20362;-60
2021/04/22 02:34:53;;;;;;;27.75;19.65;;;;;;;6.78;81.67;100659.50;2072138;28;20025;-60
2021/04/22 02:35:54;;;;;;;28.27;19.30;;;;;;;6.72;81.96;100651.75;2072176;28;20429;-60
2021/04/22 02:36:54;;;;;;;28.33;19.10;;;;;;;6.69;82.19;100657.81;2071859;28;20034;-60
2021/04/22 02:37:55;;;;;;;27.97;19.47;;;;;;;6.67;82.16;100654.38;2071736;28;20022;-60
2021/04/22 02:38:56;;;;;;;28.85;19.77;;;;;;;6.69;82.18;100662.16;2071677;28;20104;-60
2021/04/22 02:39:56;;;;;;;26.50;20.13;;;;;;;6.64;82.25;100662.19;2072220;28;20026;-60
2021/04/22 02:40:56;;;;;;;28.15;19.27;;;;;;;6.63;82.39;100657.88;2071450;28;20021;-60
2021/04/22 02:41:57;;;;;;;29.87;19.93;;;;;;;6.61;82.48;100658.75;2071548;28;20084;-60
2021/04/22 02:42:59;;;;;;;32.90;19.53;;;;;;;6.58;82.67;100662.19;2071287;28;20029;-61
2021/04/22 02:44:00;;;;;;;30.70;19.02;;;;;;;6.52;82.71;100655.31;2072224;28;20037;-60
2021/04/22 02:45:01;;;;;;;27.80;19.83;;;;;;;6.51;82.83;100658.81;2072062;28;20025;-60
2021/04/22 02:46:01;;;;;;;29.45;19.65;;;;;;;6.48;82.89;100657.94;2071904;28;20033;-60
2021/04/22 02:47:02;;;;;;;25.13;19.07;;;;;;;6.45;83.07;100655.41;2071753;28;20475;-60
2021/04/22 02:48:03;;;;;;;23.80;18.43;;;;;;;6.44;83.20;100661.44;2071928;28;20022;-60
2021/04/22 02:49:04;;;;;;;26.42;19.85;;;;;;;6.36;83.39;100662.34;2073069;28;20022;-60
2021/04/22 02:50:06;;;;;;;29.73;19.52;;;;;;;6.39;83.42;100664.06;2073366;28;20025;-60
2021/04/22 02:51:07;;;;;;;31.95;19.60;;;;;;;6.33;83.46;100659.78;2072726;28;20432;-60
2021/04/22 02:52:08;;;;;;;26.07;19.57;;;;;;;6.33;83.39;100662.34;2073097;28;20017;-60
2021/04/22 02:53:09;;;;;;;25.83;18.85;;;;;;;6.37;83.38;100666.63;2073518;28;20022;-60
2021/04/22 02:54:09;;;;;;;30.13;19.23;;;;;;;6.29;83.60;100662.38;2073767;28;20032;-60
2021/04/22 02:55:11;;;;;;;29.13;20.20;;;;;;;6.26;83.62;100664.97;2073686;28;20057;-60
2021/04/22 02:56:11;;;;;;;26.17;18.77;;;;;;;6.23;83.72;100661.53;2073334;28;20022;-60
2021/04/22 02:57:13;;;;;;;27.90;18.80;;;;;;;6.23;83.79;100666.69;2073635;28;20125;-60
2021/04/22 02:58:14;;;;;;;24.83;18.48;;;;;;;6.20;83.90;100674.50;2073835;28;20034;-60
2021/04/22 02:59:15;;;;;;;31.13;19.65;;;;;;;6.17;83.98;100668.50;2072987;28;20060;-60
2021/04/22 03:00:19;;;;;;;26.70;19.33;;;;;;;6.13;84.14;100672.78;2073105;28;20064;-60
2021/04/22 03:01:19;;;;;;;25.67;19.38;;;;;;;6.15;83.98;100671.06;2073560;28;20033;-60
2021/04/22 03:02:19;;;;;;;26.63;18.77;;;;;;;6.15;84.12;100673.66;2073662;28;20028;-60
2021/04/22 03:03:20;;;;;;;28.53;19.43;;;;;;;6.12;84.28;100675.41;2073504;28;20017;-60
2021/04/22 03:04:20;;;;;;;28.10;20.00;;;;;;;6.10;84.42;100672.81;2073743;28;20168;-60
2021/04/22 03:05:21;;;;;;;28.60;18.67;;;;;;;6.09;84.31;100671.09;2072931;28;20056;-60
2021/04/22 03:06:21;;;;;;;27.50;19.60;;;;;;;6.03;84.52;100671.09;2072849;28;20030;-60
2021/04/22 03:07:21;;;;;;;31.90;19.37;;;;;;;6.01;84.67;100673.72;2073617;28;20022;-61
2021/04/22 03:08:22;;;;;;;25.80;18.37;;;;;;;6.00;84.46;100676.31;2073596;28;20026;-60
2021/04/22 03:09:22;;;;;;;30.00;18.63;;;;;;;5.99;84.72;100690.06;2073559;28;20566;-60
2021/04/22 03:10:25;;;;;;;25.93;18.83;;;;;;;5.95;84.93;100688.34;2073769;28;20033;-60
2021/04/22 03:11:26;;;;;;;28.27;18.75;;;;;;;5.90;84.87;100685.78;2073561;28;20501;-60
2021/04/22 03:12:26;;;;;;;26.67;18.27;;;;;;;5.89;85.09;100689.22;2073608;28;20034;-60
2021/04/22 03:13:27;;;;;;;24.27;18.30;;;;;;;5.86;85.11;100687.53;2073574;28;20032;-60
2021/04/22 03:14:27;;;;;;;25.93;18.63;;;;;;;5.92;84.80;100689.22;2073658;28;20540;-60
2021/04/22 03:15:28;;;;;;;23.53;17.97;;;;;;;5.88;85.00;100688.38;2073576;28;20449;-60
2021/04/22 03:16:28;;;;;;;26.33;18.15;;;;;;;5.86;85.09;100684.09;2073272;28;20021;-60
2021/04/22 03:17:28;;;;;;;29.73;18.80;;;;;;;5.82;85.17;100683.25;2073676;28;20038;-60
2021/04/22 03:18:28;;;;;;;25.60;17.37;;;;;;;5.80;85.33;100695.31;2073449;28;20033;-60
2021/04/22 03:19:29;;;;;;;29.03;19.00;;;;;;;5.79;85.34;100688.41;2073688;28;20029;-60
2021/04/22 03:20:30;;;;;;;25.13;17.30;;;;;;;5.77;85.53;100692.72;2073553;28;20018;-60
2021/04/22 03:21:30;;;;;;;25.50;17.42;;;;;;;5.69;85.82;100687.56;2073500;28;20028;-60
2021/04/22 03:22:32;;;;;;;28.43;18.40;;;;;;;5.69;85.71;100686.72;2073381;28;20029;-60
2021/04/22 03:23:32;;;;;;;28.35;17.92;;;;;;;5.63;85.81;100685.00;2073519;28;20022;-60
2021/04/22 03:24:33;;;;;;;25.47;18.10;;;;;;;5.65;85.96;100690.16;2073561;28;20050;-60
2021/04/22 03:25:33;;;;;;;28.48;17.67;;;;;;;5.63;85.86;100685.00;2073604;28;20036;-60
2021/04/22 03:26:34;;;;;;;30.00;18.43;;;;;;;5.57;86.24;100687.59;2072628;28;20356;-60
2021/04/22 03:27:34;;;;;;;24.77;17.27;;;;;;;5.58;85.95;100690.19;2073020;28;20277;-60
2021/04/22 03:28:34;;;;;;;26.77;18.40;;;;;;;5.56;86.03;100689.31;2073413;28;20040;-60
2021/04/22 03:29:35;;;;;;;26.40;17.87;;;;;;;5.60;85.92;100688.47;2073581;28;20034;-60
2021/04/22 03:30:35;;;;;;;25.20;17.43;;;;;;;5.58;85.99;100695.34;2073460;28;20060;-60
2021/04/22 03:31:35;;;;;;;28.67;18.20;;;;;;;5.55;85.99;100695.34;2073717;28;20521;-60
2021/04/22 03:32:36;;;;;;;26.97;17.13;;;;;;;5.60;85.98;100692.75;2073384;28;20030;-60
2021/04/22 03:33:36;;;;;;;27.98;17.20;;;;;;;5.61;85.86;100690.19;2073541;28;20021;-60
2021/04/22 03:34:37;;;;;;;23.97;16.97;;;;;;;5.55;85.97;100692.75;2073394;28;20034;-60
2021/04/22 03:35:37;;;;;;;25.27;16.30;;;;;;;5.59;85.67;100698.78;2073563;28;20034;-60
2021/04/22 03:36:37;;;;;;;29.73;16.30;;;;;;;5.69;84.68;100694.47;2073220;28;20139;-60
2021/04/22 03:37:39;;;;;;;25.77;16.10;;;;;;;5.77;84.58;100703.06;2073748;28;20039;-60
2021/04/22 03:38:39;;;;;;;23.08;14.48;;;;;;;5.80;84.47;100703.06;2072034;28;20030;-60
2021/04/22 03:39:40;;;;;;;24.27;15.60;;;;;;;5.75;84.56;100699.63;2073066;28;20107;-60
2021/04/22 03:40:40;;;;;;;23.50;14.40;;;;;;;5.79;84.73;100705.63;2072816;28;20025;-60
2021/04/22 03:41:40;;;;;;;24.47;15.20;;;;;;;5.81;84.79;100704.78;2073108;28;20296;-60
2021/04/22 03:42:41;;;;;;;20.97;14.97;;;;;;;5.83;84.47;100705.63;2073439;28;20038;-60
2021/04/22 03:43:41;;;;;;;29.90;14.95;;;;;;;5.82;84.52;100703.94;2073712;28;20372;-60
2021/04/22 03:44:42;;;;;;;30.27;15.23;;;;;;;5.83;84.48;100710.81;2073412;28;20030;-60
2021/04/22 03:45:42;;;;;;;25.50;14.50;;;;;;;5.81;84.70;100709.97;2073678;28;20057;-60
2021/04/22 03:46:42;;;;;;;25.43;14.47;;;;;;;5.85;84.53;100711.66;2073342;28;20033;-60
2021/04/22 03:47:44;;;;;;;22.87;14.40;;;;;;;5.84;84.48;100709.94;2073538;28;20096;-60
2021/04/22 03:48:44;;;;;;;23.67;14.15;;;;;;;5.85;84.25;100709.06;2073480;28;20060;-60
2021/04/22 03:49:44;;;;;;;23.70;14.37;;;;;;;5.86;84.36;100708.22;2073380;28;20076;-60
2021/04/22 03:50:45;;;;;;;26.43;13.83;;;;;;;5.93;83.81;100712.50;2073592;28;20030;-60
2021/04/22 03:51:45;;;;;;;27.70;15.00;;;;;;;5.97;83.43;100713.38;2073402;28;20073;-60
2021/04/22 03:52:46;;;;;;;24.43;13.73;;;;;;;6.00;83.23;100715.13;2073248;28;20548;-60
2021/04/22 03:53:47;;;;;;;27.67;13.43;;;;;;;6.07;82.65;100719.41;2072650;28;20036;-60
2021/04/22 03:54:47;;;;;;;22.00;13.10;;;;;;;6.04;82.79;100716.81;2072823;28;20434;-60
2021/04/22 03:55:47;;;;;;;21.30;12.77;;;;;;;6.04;82.15;100716.81;2073283;28;20030;-60
2021/04/22 03:56:47;;;;;;;22.90;12.07;;;;;;;6.02;82.22;100722.00;2073226;28;20425;-60
2021/04/22 03:57:48;;;;;;;19.90;12.10;;;;;;;6.12;81.33;100722.84;2073310;28;20450;-60
2021/04/22 03:58:49;;;;;;;20.23;10.90;;;;;;;6.11;80.03;100726.31;2073264;28;20483;-60
2021/04/22 03:59:49;;;;;;;24.53;11.83;;;;;;;6.17;79.48;100721.09;2072443;28;20029;-60
2021/04/22 04:00:49;;;;;;;25.40;11.73;;;;;;;6.13;79.54;100724.53;2072735;28;20026;-60
2021/04/22 04:01:50;;;;;;;23.07;11.03;;;;;;;6.13;79.49;100719.38;2072398;28;20356;-60
2021/04/22 04:02:51;;;;;;;22.00;10.50;;;;;;;6.14;79.16;100726.28;2072081;28;20050;-60
2021/04/22 04:03:51;;;;;;;20.95;11.00;;;;;;;6.12;79.34;100722.84;2072858;28;20474;-60
2021/04/22 04:04:51;;;;;;;21.27;11.07;;;;;;;6.02;79.62;100721.16;2072412;28;20021;-60
2021/04/22 04:05:52;;;;;;;16.77;10.87;;;;;;;6.09;79.15;100722.84;2072387;28;20033;-61
2021/04/22 04:06:53;;;;;;;22.87;10.90;;;;;;;6.09;79.08;100733.22;2072593;28;20018;-60
2021/04/22 04:07:54;;;;;;;17.95;9.93;;;;;;;6.00;79.19;100730.66;2072433;28;20021;-60
2021/04/22 04:08:54;;;;;;;23.83;10.90;;;;;;;5.93;79.31;100735.78;2073183;28;20022;-60
2021/04/22 04:09:54;;;;;;;17.80;9.77;;;;;;;5.87;79.73;100742.72;2073164;28;20053;-60
2021/04/22 04:10:55;;;;;;;20.90;11.13;;;;;;;5.93;79.15;100738.38;2072969;28;20026;-60
2021/04/22 04:11:55;;;;;;;22.30;10.17;;;;;;;5.91;79.19;100734.97;2072525;28;20404;-60
2021/04/22 04:12:55;;;;;;;21.10;9.63;;;;;;;5.91;78.94;100745.31;2072563;28;20032;-60
2021/04/22 04:13:56;;;;;;;25.20;10.37;;;;;;;5.88;78.79;100739.25;2075548;28;20079;-59
2021/04/22 04:14:56;;;;;;;21.97;10.07;;;;;;;5.87;78.71;100743.56;2073300;28;20567;-58
2021/04/22 04:15:56;;;;;;;20.57;10.03;;;;;;;5.90;78.50;100746.16;2073202;28;20018;-58
2021/04/22 04:16:56;;;;;;;21.43;9.37;;;;;;;5.90;78.02;100740.13;2072982;28;20077;-58
2021/04/22 04:17:57;;;;;;;19.67;9.40;;;;;;;5.92;77.65;100740.97;2073427;28;20439;-59
2021/04/22 04:18:57;;;;;;;18.37;9.00;;;;;;;5.93;76.96;100748.72;2073020;28;20030;-59
2021/04/22 04:19:58;;;;;;;22.40;9.70;;;;;;;5.91;77.02;100742.72;2073192;28;20030;-58
2021/04/22 04:20:59;;;;;;;17.65;9.18;;;;;;;5.90;77.16;100737.53;2073011;28;20028;-58
2021/04/22 04:21:59;;;;;;;17.97;9.20;;;;;;;5.84;77.29;100746.16;2073261;28;20124;-59
2021/04/22 04:22:59;;;;;;;18.53;9.20;;;;;;;5.80;77.92;100756.50;2073036;28;20068;-59
2021/04/22 04:24:00;;;;;;;18.90;9.23;;;;;;;5.72;78.29;100753.97;2073274;28;20366;-58
2021/04/22 04:25:00;;;;;;;19.33;9.60;;;;;;;5.74;78.34;100753.09;2073195;28;20018;-59
2021/04/22 04:26:01;;;;;;;23.67;9.70;;;;;;;5.75;77.83;100757.41;2073257;28;20340;-58
2021/04/22 04:27:01;;;;;;;24.63;9.83;;;;;;;5.71;77.59;100747.06;2073161;28;20393;-59
2021/04/22 04:28:02;;;;;;;18.33;9.60;;;;;;;5.72;77.67;100753.97;2073268;28;20355;-58
2021/04/22 04:29:02;;;;;;;19.15;9.52;;;;;;;5.67;77.48;100751.38;2073004;28;20077;-59
2021/04/22 04:30:05;;;;;;;19.17;9.25;;;;;;;5.69;77.92;100756.53;2073244;28;20129;-58
2021/04/22 04:31:06;;;;;;;17.67;9.00;;;;;;;5.74;77.04;100760.84;2073066;28;20028;-58
2021/04/22 04:32:06;;;;;;;17.57;8.43;;;;;;;5.79;76.52;100754.78;2073261;28;20389;-59
2021/04/22 04:33:07;;;;;;;21.90;9.05;;;;;;;5.81;75.97;100759.13;2072976;28;20026;-60
2021/04/22 04:34:07;;;;;;;16.90;8.67;;;;;;;5.82;75.46;100762.56;2073234;28;20434;-59
2021/04/22 04:35:09;;;;;;;26.60;9.17;;;;;;;5.83;75.20;100762.53;2073100;28;20028;-59
2021/04/22 04:36:09;;;;;;;20.10;7.97;;;;;;;5.85;75.22;100765.16;2072780;28;20359;-60
2021/04/22 04:37:10;;;;;;;20.35;8.27;;;;;;;5.86;75.24;100765.13;2073059;28;20068;-60
2021/04/22 04:38:10;;;;;;;15.80;8.30;;;;;;;5.86;75.15;100766.88;2072393;28;20030;-59
2021/04/22 04:39:11;;;;;;;20.87;8.40;;;;;;;5.89;75.26;100764.25;2073119;28;20084;-59
2021/04/22 04:40:13;;;;;;;21.17;8.68;;;;;;;5.90;75.17;100768.56;2073308;28;20040;-59